Time;durP1;ratioP1;P1;durP2;ratioP2;P2;SDS_P1;SDS_P2;PMS_P1;PMS_P2;Temp;Humidity;BMP_temperature;BMP_pressure;BME280_temperature;BME280_humidity;BME280_pressure;Samples;Min_cycle;Max_cycle;Signal;HPM_P1;HPM_P2
2022/01/13 00:01:56;;;;;;;;;26.75;25.25;;;;;;;;5009374;28;11593;-81
2022/01/13 00:04:24;;;;;;;;;39.00;27.00;;;;;;;;5004568;28;11630;-81
2022/01/13 00:06:51;;;;;;;;;28.25;23.50;;;;;;;;5006106;28;11622;-80
2022/01/13 00:09:19;;;;;;;;;32.50;27.25;;;;;;;;5005172;28;11725;-80
2022/01/13 00:11:48;;;;;;;;;42.00;28.25;;;;;;;;5004159;28;11612;-79
2022/01/13 00:14:38;;;;;;;;;33.75;28.00;;;;;;;;5007398;28;11615;-80
2022/01/13 00:17:23;;;;;;;;;32.00;29.75;;;;;;;;5004217;28;12471;-80
2022/01/13 00:20:08;;;;;;;;;43.50;31.00;;;;;;;;5004929;28;11768;-80
2022/01/13 00:22:50;;;;;;;;;23.75;23.25;;;;;;;;5006581;28;11643;-79
2022/01/13 00:25:20;;;;;;;;;23.75;21.00;;;;;;;;5005406;28;11670;-80
2022/01/13 00:27:54;;;;;;;;;25.75;23.50;;;;;;;;5006623;28;11608;-80
2022/01/13 00:30:21;;;;;;;;;32.75;25.00;;;;;;;;5004014;28;11623;-80
2022/01/13 00:32:50;;;;;;;;;32.00;28.00;;;;;;;;5005889;28;11698;-81
2022/01/13 00:35:17;;;;;;;;;31.00;24.75;;;;;;;;5014206;28;11629;-81
2022/01/13 00:37:45;;;;;;;;;27.25;23.50;;;;;;;;5006165;28;11780;-81
2022/01/13 00:40:13;;;;;;;;;46.75;35.25;;;;;;;;5005212;28;11642;-80
2022/01/13 00:42:41;;;;;;;;;34.75;31.25;;;;;;;;5004757;28;11637;-80
2022/01/13 00:45:14;;;;;;;;;18.25;16.25;;;;;;;;5003565;28;11734;-82
2022/01/13 00:47:41;;;;;;;;;23.50;20.25;;;;;;;;5003570;28;11623;-80
2022/01/13 00:50:11;;;;;;;;;27.00;19.00;;;;;;;;5004720;28;11626;-79
2022/01/13 00:52:38;;;;;;;;;28.25;17.00;;;;;;;;5004203;28;11117;-80
2022/01/13 00:55:09;;;;;;;;;23.00;19.00;;;;;;;;5001156;28;11606;-80
2022/01/13 00:57:37;;;;;;;;;24.25;24.25;;;;;;;;5004528;28;11066;-81
2022/01/13 01:00:06;;;;;;;;;29.50;24.75;;;;;;;;5004067;28;12402;-80
2022/01/13 01:02:33;;;;;;;;;27.75;23.75;;;;;;;;5004170;28;11637;-81
2022/01/13 01:05:00;;;;;;;;;26.25;22.00;;;;;;;;5002844;28;11610;-79
2022/01/13 01:07:29;;;;;;;;;20.50;18.50;;;;;;;;5004524;28;11615;-77
2022/01/13 01:10:01;;;;;;;;;13.75;9.00;;;;;;;;5002167;28;11621;-78
2022/01/13 01:12:30;;;;;;;;;24.00;21.50;;;;;;;;5003957;28;11603;-79
2022/01/13 01:14:58;;;;;;;;;26.00;24.50;;;;;;;;5006202;28;11621;-79
2022/01/13 01:17:25;;;;;;;;;22.50;19.00;;;;;;;;5005439;28;11630;-80
2022/01/13 01:19:53;;;;;;;;;19.00;14.75;;;;;;;;5004076;28;12429;-78
2022/01/13 01:22:41;;;;;;;;;26.50;22.25;;;;;;;;5002506;28;11735;-79
2022/01/13 01:28:01;;;;;;;;;26.50;24.50;;;;;;;;4990483;28;11755;-79
2022/01/13 01:30:35;;;;;;;;;21.00;18.75;;;;;;;;5001473;28;12495;-79
2022/01/13 01:33:03;;;;;;;;;30.50;25.25;;;;;;;;5002968;28;11765;-78
2022/01/13 01:35:31;;;;;;;;;25.00;19.00;;;;;;;;5003721;28;11696;-80
2022/01/13 01:37:58;;;;;;;;;36.25;19.25;;;;;;;;5004630;28;11632;-79
2022/01/13 01:40:27;;;;;;;;;29.25;23.75;;;;;;;;5002838;28;11639;-79
2022/01/13 01:42:54;;;;;;;;;16.00;15.50;;;;;;;;5004786;28;11694;-79
2022/01/13 01:45:22;;;;;;;;;23.25;14.00;;;;;;;;5002101;28;11628;-79
2022/01/13 01:47:51;;;;;;;;;14.50;12.50;;;;;;;;5003974;28;12356;-77
2022/01/13 01:50:23;;;;;;;;;23.25;19.25;;;;;;;;5003987;28;11679;-79
2022/01/13 01:52:53;;;;;;;;;20.00;19.00;;;;;;;;5003179;28;11609;-78
2022/01/13 01:55:22;;;;;;;;;18.25;17.00;;;;;;;;5003263;28;11765;-80
2022/01/13 01:57:52;;;;;;;;;15.50;15.50;;;;;;;;5002860;28;11605;-78
2022/01/13 02:00:22;;;;;;;;;20.75;19.00;;;;;;;;5001161;28;11626;-78
2022/01/13 02:02:49;;;;;;;;;20.00;17.25;;;;;;;;5003000;28;11640;-78
2022/01/13 02:05:17;;;;;;;;;19.75;17.50;;;;;;;;5002968;28;11710;-79
2022/01/13 02:07:45;;;;;;;;;18.75;17.25;;;;;;;;5004241;28;11700;-79
2022/01/13 02:10:14;;;;;;;;;20.75;15.75;;;;;;;;5002488;28;11607;-79
2022/01/13 02:12:47;;;;;;;;;22.00;16.25;;;;;;;;5005511;28;11608;-80
2022/01/13 02:15:32;;;;;;;;;22.50;14.50;;;;;;;;5004314;28;11621;-81
2022/01/13 02:18:01;;;;;;;;;25.75;19.25;;;;;;;;4997595;28;11710;-79
2022/01/13 02:20:49;;;;;;;;;15.00;12.75;;;;;;;;5003363;28;12364;-80
2022/01/13 02:23:29;;;;;;;;;18.00;18.00;;;;;;;;5002726;28;11621;-78
2022/01/13 02:25:57;;;;;;;;;25.25;19.25;;;;;;;;5003016;28;11631;-80
2022/01/13 02:28:24;;;;;;;;;20.75;16.50;;;;;;;;5002512;28;11722;-80
2022/01/13 02:30:51;;;;;;;;;14.50;13.50;;;;;;;;5001685;28;11588;-79
2022/01/13 02:33:19;;;;;;;;;12.00;12.00;;;;;;;;5002502;28;11629;-79
2022/01/13 02:35:46;;;;;;;;;22.75;19.25;;;;;;;;5002243;28;12490;-80
2022/01/13 02:38:15;;;;;;;;;21.00;16.50;;;;;;;;5004241;28;11576;-79
2022/01/13 02:40:42;;;;;;;;;15.75;13.00;;;;;;;;5001590;28;11602;-80
2022/01/13 02:43:10;;;;;;;;;24.75;19.00;;;;;;;;5002336;28;12317;-79
2022/01/13 02:45:51;;;;;;;;;24.00;19.25;;;;;;;;5000915;28;11731;-79
2022/01/13 02:48:30;;;;;;;;;21.25;13.00;;;;;;;;5004323;28;11706;-81
2022/01/13 02:50:57;;;;;;;;;28.50;22.75;;;;;;;;5002032;28;11589;-77
2022/01/13 02:53:26;;;;;;;;;20.75;17.50;;;;;;;;5002591;28;11639;-80
2022/01/13 02:56:00;;;;;;;;;22.50;19.50;;;;;;;;5002938;28;11627;-79
2022/01/13 02:58:28;;;;;;;;;29.75;22.00;;;;;;;;5001058;28;11658;-77
2022/01/13 03:00:56;;;;;;;;;18.00;15.25;;;;;;;;5001111;28;11575;-79
2022/01/13 03:03:23;;;;;;;;;20.50;16.25;;;;;;;;5001626;28;11655;-79
2022/01/13 03:05:50;;;;;;;;;27.75;22.25;;;;;;;;4999302;28;11614;-79
2022/01/13 03:08:17;;;;;;;;;20.00;18.00;;;;;;;;5002068;28;12492;-79
2022/01/13 03:10:46;;;;;;;;;24.00;22.00;;;;;;;;5000734;28;11643;-79
2022/01/13 03:13:17;;;;;;;;;33.00;26.00;;;;;;;;5002819;28;11699;-80
2022/01/13 03:15:44;;;;;;;;;20.50;13.00;;;;;;;;5004338;28;11597;-79
2022/01/13 03:18:11;;;;;;;;;19.75;16.00;;;;;;;;5002039;28;11605;-78
2022/01/13 03:20:38;;;;;;;;;17.75;14.75;;;;;;;;5000777;28;11615;-80
2022/01/13 03:23:06;;;;;;;;;14.75;14.75;;;;;;;;5004015;28;11709;-79
2022/01/13 03:25:33;;;;;;;;;12.00;9.75;;;;;;;;4999766;28;11689;-78
2022/01/13 03:28:07;;;;;;;;;18.75;17.25;;;;;;;;5001588;28;11643;-78
2022/01/13 03:30:35;;;;;;;;;14.75;14.00;;;;;;;;5001062;28;11808;-77
2022/01/13 03:33:03;;;;;;;;;23.00;19.00;;;;;;;;5000510;28;12536;-80
2022/01/13 03:35:30;;;;;;;;;20.25;15.75;;;;;;;;5005458;28;11778;-79
2022/01/13 03:37:58;;;;;;;;;19.00;13.50;;;;;;;;5006232;28;11593;-80
2022/01/13 03:40:26;;;;;;;;;20.75;17.25;;;;;;;;5007059;28;11593;-80
2022/01/13 03:42:53;;;;;;;;;24.25;16.50;;;;;;;;5004477;28;11095;-78
2022/01/13 03:45:22;;;;;;;;;22.25;15.25;;;;;;;;5005631;28;11798;-79
2022/01/13 03:47:50;;;;;;;;;23.25;19.50;;;;;;;;5006137;28;11611;-79
2022/01/13 03:50:17;;;;;;;;;18.50;16.75;;;;;;;;5004813;28;11702;-79
2022/01/13 03:53:50;;;;;;;;;17.50;16.00;;;;;;;;5003360;28;11633;-79
2022/01/13 03:57:08;;;;;;;;;17.00;16.00;;;;;;;;5000344;28;11585;-78
2022/01/13 04:00:41;;;;;;;;;28.75;22.25;;;;;;;;4947439;28;11668;-79
2022/01/13 04:03:10;;;;;;;;;19.00;18.00;;;;;;;;4997760;28;11610;-79
2022/01/13 04:06:02;;;;;;;;;23.25;21.00;;;;;;;;5006066;28;11593;-77
2022/01/13 04:08:30;;;;;;;;;16.75;15.75;;;;;;;;5002906;28;11594;-79
2022/01/13 04:11:16;;;;;;;;;22.75;18.25;;;;;;;;5005311;28;11643;-77
2022/01/13 04:13:48;;;;;;;;;24.25;18.50;;;;;;;;5007923;28;12364;-76
2022/01/13 04:16:16;;;;;;;;;25.50;18.25;;;;;;;;5007139;28;11604;-76
2022/01/13 04:18:46;;;;;;;;;16.25;16.25;;;;;;;;5005314;28;11625;-80
2022/01/13 04:21:14;;;;;;;;;28.00;22.00;;;;;;;;5003495;28;11731;-81
2022/01/13 04:23:42;;;;;;;;;22.25;16.25;;;;;;;;5005860;28;11633;-81
2022/01/13 04:26:09;;;;;;;;;16.25;16.25;;;;;;;;5002904;28;11618;-80
2022/01/13 04:28:38;;;;;;;;;11.00;11.00;;;;;;;;5005753;28;11677;-79
2022/01/13 04:31:06;;;;;;;;;24.25;19.75;;;;;;;;5001681;28;11560;-80
2022/01/13 04:33:36;;;;;;;;;17.75;14.25;;;;;;;;5003622;28;11765;-79
2022/01/13 04:36:07;;;;;;;;;13.75;12.00;;;;;;;;5006002;28;11609;-79
2022/01/13 04:38:34;;;;;;;;;15.00;13.50;;;;;;;;5005123;28;11615;-79
2022/01/13 04:41:04;;;;;;;;;18.25;18.25;;;;;;;;5005215;28;11630;-80
2022/01/13 04:43:33;;;;;;;;;16.50;16.00;;;;;;;;5002006;28;11619;-80
2022/01/13 04:46:00;;;;;;;;;25.75;22.75;;;;;;;;5005275;28;11617;-81
2022/01/13 04:48:28;;;;;;;;;31.50;31.50;;;;;;;;5004920;28;11834;-79
2022/01/13 04:50:55;;;;;;;;;24.00;17.00;;;;;;;;5005521;28;11609;-77
2022/01/13 04:53:24;;;;;;;;;32.25;26.25;;;;;;;;5005467;28;11752;-78
2022/01/13 04:55:57;;;;;;;;;27.00;19.50;;;;;;;;5003400;28;11733;-78
2022/01/13 04:58:24;;;;;;;;;30.00;23.00;;;;;;;;5005746;28;11645;-77
2022/01/13 05:00:51;;;;;;;;;23.75;15.00;;;;;;;;5002784;28;11600;-77
2022/01/13 05:03:19;;;;;;;;;8.00;6.00;;;;;;;;5005986;28;11638;-77
2022/01/13 05:05:46;;;;;;;;;24.25;20.00;;;;;;;;5002565;28;11751;-80
2022/01/13 05:08:13;;;;;;;;;19.50;16.50;;;;;;;;5002830;28;11781;-78
2022/01/13 05:10:42;;;;;;;;;19.25;15.25;;;;;;;;5003233;28;11595;-76
2022/01/13 05:13:11;;;;;;;;;14.75;14.25;;;;;;;;5009628;28;11653;-80
2022/01/13 05:15:40;;;;;;;;;20.25;17.00;;;;;;;;5008681;28;11101;-79
2022/01/13 05:18:17;;;;;;;;;14.50;11.00;;;;;;;;4999758;28;11652;-78
2022/01/13 05:20:49;;;;;;;;;17.25;12.50;;;;;;;;5000704;28;12603;-77
2022/01/13 05:23:17;;;;;;;;;15.00;15.00;;;;;;;;5005299;28;11593;-79
2022/01/13 05:25:46;;;;;;;;;28.25;17.25;;;;;;;;5003011;28;11657;-78
2022/01/13 05:28:14;;;;;;;;;17.00;15.50;;;;;;;;5003530;28;11641;-77
2022/01/13 05:30:42;;;;;;;;;17.00;12.75;;;;;;;;5002080;28;12370;-79
2022/01/13 05:33:09;;;;;;;;;7.75;5.25;;;;;;;;5001511;28;12463;-76
2022/01/13 05:35:37;;;;;;;;;26.25;21.00;;;;;;;;5002473;28;12359;-85
2022/01/13 05:38:06;;;;;;;;;26.75;19.25;;;;;;;;5002138;28;11602;-79
2022/01/13 05:40:33;;;;;;;;;24.75;19.50;;;;;;;;5003871;28;11686;-81
2022/01/13 05:43:03;;;;;;;;;19.00;15.25;;;;;;;;5002063;28;12477;-80
2022/01/13 05:45:32;;;;;;;;;19.50;14.50;;;;;;;;4999706;28;11598;-79
2022/01/13 05:48:00;;;;;;;;;20.25;17.25;;;;;;;;5002337;28;11604;-79
2022/01/13 05:50:29;;;;;;;;;21.00;15.25;;;;;;;;4998918;28;11592;-78
2022/01/13 05:52:57;;;;;;;;;19.00;17.50;;;;;;;;4998880;28;12507;-78
2022/01/13 05:55:25;;;;;;;;;16.00;14.50;;;;;;;;5002140;28;11773;-79
2022/01/13 05:57:52;;;;;;;;;19.25;16.00;;;;;;;;5000782;28;11615;-79
2022/01/13 06:00:23;;;;;;;;;21.00;20.25;;;;;;;;5001394;28;11723;-79
2022/01/13 06:02:51;;;;;;;;;21.25;17.50;;;;;;;;5002733;28;11739;-78
2022/01/13 06:05:19;;;;;;;;;26.50;19.50;;;;;;;;4998824;28;11096;-78
2022/01/13 06:07:47;;;;;;;;;18.75;18.75;;;;;;;;5003177;28;11593;-76
2022/01/13 06:10:18;;;;;;;;;20.50;15.75;;;;;;;;5001518;28;11609;-77
2022/01/13 06:12:46;;;;;;;;;25.00;20.00;;;;;;;;5002566;28;11621;-78
2022/01/13 06:15:15;;;;;;;;;19.75;19.25;;;;;;;;5001915;28;11654;-80
2022/01/13 06:17:44;;;;;;;;;46.25;30.00;;;;;;;;5003311;28;11594;-79
2022/01/13 06:20:13;;;;;;;;;45.25;33.75;;;;;;;;4999721;28;11761;-79
2022/01/13 06:22:42;;;;;;;;;23.25;21.00;;;;;;;;5002468;28;11649;-77
2022/01/13 06:25:10;;;;;;;;;29.00;26.25;;;;;;;;5002594;28;11575;-75
2022/01/13 06:27:38;;;;;;;;;24.25;24.25;;;;;;;;5003810;28;12377;-75
2022/01/13 06:30:07;;;;;;;;;15.25;11.50;;;;;;;;5003856;28;11753;-81
2022/01/13 06:32:35;;;;;;;;;24.25;19.50;;;;;;;;5001921;28;11641;-78
2022/01/13 06:35:04;;;;;;;;;26.25;24.75;;;;;;;;5001147;28;11652;-82
2022/01/13 06:37:31;;;;;;;;;27.50;25.00;;;;;;;;5003137;28;11727;-83
2022/01/13 06:40:00;;;;;;;;;30.00;23.75;;;;;;;;5000798;28;11646;-83
2022/01/13 06:42:27;;;;;;;;;17.75;17.75;;;;;;;;4999072;28;11702;-80
2022/01/13 06:44:54;;;;;;;;;17.50;14.25;;;;;;;;5003343;28;11639;-74
2022/01/13 06:47:22;;;;;;;;;22.00;19.50;;;;;;;;5003180;28;11589;-77
2022/01/13 06:49:49;;;;;;;;;16.75;14.00;;;;;;;;4996154;28;11727;-75
2022/01/13 06:52:18;;;;;;;;;21.50;15.25;;;;;;;;5002077;28;12501;-75
2022/01/13 06:54:45;;;;;;;;;21.75;19.00;;;;;;;;5001176;28;11639;-76
2022/01/13 06:57:12;;;;;;;;;26.00;20.00;;;;;;;;5003055;28;11751;-76
2022/01/13 06:59:39;;;;;;;;;16.50;16.50;;;;;;;;5002603;28;11608;-76
2022/01/13 07:02:07;;;;;;;;;16.00;13.50;;;;;;;;5001134;28;11587;-77
2022/01/13 07:04:34;;;;;;;;;26.00;23.75;;;;;;;;5007417;28;11715;-76
2022/01/13 07:07:02;;;;;;;;;36.50;34.00;;;;;;;;5002398;28;11642;-75
2022/01/13 07:09:30;;;;;;;;;23.75;20.25;;;;;;;;5007512;28;12416;-78
2022/01/13 07:11:58;;;;;;;;;26.50;23.75;;;;;;;;5005777;28;11650;-76
2022/01/13 07:14:25;;;;;;;;;34.50;24.50;;;;;;;;5005900;28;11727;-76
2022/01/13 07:16:52;;;;;;;;;24.25;23.75;;;;;;;;5005382;28;11648;-76
2022/01/13 07:19:20;;;;;;;;;21.50;21.25;;;;;;;;5004872;28;12588;-79
2022/01/13 07:21:47;;;;;;;;;21.25;18.00;;;;;;;;5007325;28;11613;-80
2022/01/13 07:24:15;;;;;;;;;27.25;25.00;;;;;;;;5005714;28;11658;-79
2022/01/13 07:26:43;;;;;;;;;26.25;19.25;;;;;;;;5006427;28;11613;-76
2022/01/13 07:29:11;;;;;;;;;43.00;35.75;;;;;;;;5004072;28;11609;-76
2022/01/13 07:31:39;;;;;;;;;35.00;21.75;;;;;;;;5004984;28;11611;-76
2022/01/13 07:34:07;;;;;;;;;33.00;25.33;;;;;;;;5006647;28;11624;-75
2022/01/13 07:36:35;;;;;;;;;37.00;27.00;;;;;;;;5006649;28;11647;-75
2022/01/13 07:39:02;;;;;;;;;35.75;33.25;;;;;;;;5006019;28;11621;-75
2022/01/13 07:41:29;;;;;;;;;26.75;26.75;;;;;;;;5005986;28;11635;-76
2022/01/13 07:43:58;;;;;;;;;32.25;24.75;;;;;;;;5008260;28;11749;-75
2022/01/13 07:46:26;;;;;;;;;38.00;30.25;;;;;;;;5004162;28;11631;-75
2022/01/13 07:48:53;;;;;;;;;40.33;33.33;;;;;;;;5009246;28;11696;-76
2022/01/13 07:51:21;;;;;;;;;30.25;27.75;;;;;;;;5004866;28;11663;-75
2022/01/13 07:53:48;;;;;;;;;65.67;47.67;;;;;;;;5006248;28;11623;-76
2022/01/13 07:56:15;;;;;;;;;47.33;39.67;;;;;;;;5012324;28;8897;-77
2022/01/13 07:58:43;;;;;;;;;38.00;36.33;;;;;;;;5005753;28;12401;-79
2022/01/13 08:01:12;;;;;;;;;45.33;39.33;;;;;;;;5004818;28;11569;-76
2022/01/13 08:03:39;;;;;;;;;41.00;40.00;;;;;;;;5005059;28;12427;-75
2022/01/13 08:06:07;;;;;;;;;42.75;37.75;;;;;;;;5006847;28;11636;-76
2022/01/13 08:08:36;;;;;;;;;41.00;32.00;;;;;;;;5004012;28;11651;-75
2022/01/13 08:11:04;;;;;;;;;55.67;44.33;;;;;;;;5006014;28;12442;-76
2022/01/13 08:13:31;;;;;;;;;65.67;48.67;;;;;;;;5005909;28;11634;-76
2022/01/13 08:16:01;;;;;;;;;43.00;38.00;;;;;;;;5005844;28;8906;-76
2022/01/13 08:21:14;;;;;;;;;47.33;41.00;;;;;;;;5005479;28;11595;-75
2022/01/13 08:23:41;;;;;;;;;42.33;40.67;;;;;;;;5005844;28;11654;-75
2022/01/13 08:26:09;;;;;;;;;44.00;34.50;;;;;;;;5005366;28;11656;-75
2022/01/13 08:28:36;;;;;;;;;51.67;43.33;;;;;;;;5006412;28;12400;-75
2022/01/13 08:31:04;;;;;;;;;29.00;28.25;;;;;;;;5007114;28;12122;-76
2022/01/13 08:33:33;;;;;;;;;27.75;20.00;;;;;;;;5005932;28;11617;-75
2022/01/13 08:36:00;;;;;;;;;31.75;24.25;;;;;;;;5001119;28;11618;-75
2022/01/13 08:38:28;;;;;;;;;45.25;38.50;;;;;;;;4997263;28;11652;-75
2022/01/13 08:40:57;;;;;;;;;37.25;30.50;;;;;;;;5005945;28;11623;-76
2022/01/13 08:43:25;;;;;;;;;36.50;28.75;;;;;;;;5005321;28;12425;-74
2022/01/13 08:45:53;;;;;;;;;54.00;42.33;;;;;;;;5005874;28;11644;-75
2022/01/13 08:48:21;;;;;;;;;35.25;33.00;;;;;;;;5007029;28;11767;-75
2022/01/13 08:50:49;;;;;;;;;40.00;32.25;;;;;;;;5003469;28;11697;-74
2022/01/13 08:53:17;;;;;;;;;40.00;36.75;;;;;;;;5006457;28;11617;-75
2022/01/13 08:55:45;;;;;;;;;53.33;45.00;;;;;;;;5003206;28;11612;-75
2022/01/13 08:58:12;;;;;;;;;52.00;42.50;;;;;;;;5004769;28;12367;-75
2022/01/13 09:00:40;;;;;;;;;47.25;38.50;;;;;;;;5003741;28;11540;-75
2022/01/13 09:03:08;;;;;;;;;81.67;61.67;;;;;;;;5005999;28;11650;-75
2022/01/13 09:05:36;;;;;;;;;49.67;44.00;;;;;;;;5005399;28;8965;-75
2022/01/13 09:08:05;;;;;;;;;85.33;62.00;;;;;;;;4992865;28;12437;-75
2022/01/13 09:10:33;;;;;;;;;60.00;44.33;;;;;;;;5004638;28;8865;-76
2022/01/13 09:13:01;;;;;;;;;53.50;43.50;;;;;;;;5004529;28;8878;-75
2022/01/13 09:15:35;;;;;;;;;49.25;40.75;;;;;;;;5005570;28;11657;-75
2022/01/13 09:18:10;;;;;;;;;53.50;45.00;;;;;;;;5004297;28;11627;-76
2022/01/13 09:20:39;;;;;;;;;56.00;45.33;;;;;;;;5002125;28;11646;-75
2022/01/13 09:23:08;;;;;;;;;65.00;49.33;;;;;;;;5004689;28;12457;-75
2022/01/13 09:25:36;;;;;;;;;68.67;53.67;;;;;;;;5004236;28;8870;-75
2022/01/13 09:28:06;;;;;;;;;71.67;53.67;;;;;;;;5006126;28;8870;-75
2022/01/13 09:30:33;;;;;;;;;55.00;44.00;;;;;;;;5002443;28;8824;-75
2022/01/13 09:33:00;;;;;;;;;69.00;52.00;;;;;;;;5005145;28;11767;-75
2022/01/13 09:35:28;;;;;;;;;67.67;52.00;;;;;;;;5002923;28;8885;-76
2022/01/13 09:37:55;;;;;;;;;65.00;54.33;;;;;;;;5008148;28;8858;-76
2022/01/13 09:40:24;;;;;;;;;62.33;48.00;;;;;;;;5002909;28;8909;-75
2022/01/13 09:42:52;;;;;;;;;71.33;54.67;;;;;;;;5003141;28;11712;-78
2022/01/13 09:45:20;;;;;;;;;72.00;53.33;;;;;;;;5003038;28;10596;-76
2022/01/13 09:47:51;;;;;;;;;52.67;45.33;;;;;;;;5005476;28;8899;-76
2022/01/13 09:50:20;;;;;;;;;52.00;44.50;;;;;;;;5001848;28;11641;-76
2022/01/13 09:52:48;;;;;;;;;49.00;44.33;;;;;;;;5003354;28;11658;-76
2022/01/13 09:55:16;;;;;;;;;66.67;52.67;;;;;;;;5008250;28;11760;-76
2022/01/13 09:57:46;;;;;;;;;68.33;48.00;;;;;;;;5003990;28;8866;-76
2022/01/13 10:00:15;;;;;;;;;51.50;40.75;;;;;;;;5002466;28;11736;-76
2022/01/13 10:02:43;;;;;;;;;51.50;41.00;;;;;;;;5005372;28;11655;-76
2022/01/13 10:05:11;;;;;;;;;52.00;42.67;;;;;;;;5003824;28;11639;-74
2022/01/13 10:07:42;;;;;;;;;47.50;42.50;;;;;;;;5005596;28;11622;-75
2022/01/13 10:10:14;;;;;;;;;51.75;36.75;;;;;;;;5003407;28;11686;-77
2022/01/13 10:12:43;;;;;;;;;48.50;42.00;;;;;;;;5005169;28;11650;-77
2022/01/13 10:17:58;;;;;;;;;52.75;42.25;;;;;;;;5003152;28;11617;-77
2022/01/13 10:20:25;;;;;;;;;40.75;33.50;;;;;;;;5005019;28;11628;-77
2022/01/13 10:22:53;;;;;;;;;40.50;40.25;;;;;;;;5002130;28;11727;-75
2022/01/13 10:25:33;;;;;;;;;57.25;44.25;;;;;;;;5004329;28;11618;-75
2022/01/13 10:28:14;;;;;;;;;62.67;50.67;;;;;;;;5002870;28;11659;-76
2022/01/13 10:30:45;;;;;;;;;51.33;43.67;;;;;;;;5009080;28;11571;-77
2022/01/13 10:33:17;;;;;;;;;62.67;53.00;;;;;;;;5004698;28;11616;-74
2022/01/13 10:35:46;;;;;;;;;47.33;41.00;;;;;;;;4997222;28;12256;-80
2022/01/13 10:38:16;;;;;;;;;51.25;42.00;;;;;;;;5004048;28;11683;-75
2022/01/13 10:40:47;;;;;;;;;43.75;37.50;;;;;;;;4998152;28;12588;-77
2022/01/13 10:43:16;;;;;;;;;50.00;41.75;;;;;;;;5004294;28;11763;-77
2022/01/13 10:45:49;;;;;;;;;34.50;31.75;;;;;;;;5000217;28;11761;-72
2022/01/13 10:48:19;;;;;;;;;33.25;28.50;;;;;;;;5003461;28;11720;-75
2022/01/13 10:50:50;;;;;;;;;24.00;19.75;;;;;;;;5004473;28;11732;-77
2022/01/13 10:53:20;;;;;;;;;23.25;22.00;;;;;;;;5005865;28;11733;-78
2022/01/13 10:55:50;;;;;;;;;26.00;21.50;;;;;;;;5005493;28;11634;-78
2022/01/13 10:58:20;;;;;;;;;30.50;26.50;;;;;;;;5001026;28;11617;-77
2022/01/13 11:00:52;;;;;;;;;25.75;16.00;;;;;;;;5005597;28;11638;-79
2022/01/13 11:03:21;;;;;;;;;27.75;23.75;;;;;;;;5005155;28;12389;-80
2022/01/13 11:05:51;;;;;;;;;30.50;29.50;;;;;;;;5003005;28;11610;-80
2022/01/13 11:08:27;;;;;;;;;45.75;40.00;;;;;;;;5004570;28;12682;-76
2022/01/13 11:10:57;;;;;;;;;40.00;30.75;;;;;;;;5001465;28;11694;-78
2022/01/13 11:13:27;;;;;;;;;29.00;29.00;;;;;;;;5003237;28;12450;-76
2022/01/13 11:15:56;;;;;;;;;46.75;41.50;;;;;;;;5000638;28;11657;-77
2022/01/13 11:18:27;;;;;;;;;32.25;28.00;;;;;;;;4998738;28;11629;-78
2022/01/13 11:20:56;;;;;;;;;32.75;28.50;;;;;;;;5004004;28;11642;-77
2022/01/13 11:23:23;;;;;;;;;27.25;24.75;;;;;;;;5000628;28;11659;-77
2022/01/13 11:25:53;;;;;;;;;37.75;32.25;;;;;;;;5003637;28;11625;-79
2022/01/13 11:28:21;;;;;;;;;39.75;31.25;;;;;;;;5001587;28;11643;-80
2022/01/13 11:30:50;;;;;;;;;34.75;31.00;;;;;;;;5000321;28;12495;-80
2022/01/13 11:33:20;;;;;;;;;30.00;28.50;;;;;;;;5000683;28;11724;-80
2022/01/13 11:35:55;;;;;;;;;39.75;27.50;;;;;;;;4995068;28;11749;-75
2022/01/13 11:38:22;;;;;;;;;23.25;23.25;;;;;;;;5003619;28;11615;-78
2022/01/13 11:40:51;;;;;;;;;26.25;22.00;;;;;;;;5003175;28;11631;-77
2022/01/13 11:43:34;;;;;;;;;28.50;22.25;;;;;;;;5000934;28;11622;-79
2022/01/13 11:46:21;;;;;;;;;25.25;18.00;;;;;;;;4993163;28;11642;-79
2022/01/13 11:49:04;;;;;;;;;26.25;24.50;;;;;;;;5013145;28;11643;-76
2022/01/13 11:51:47;;;;;;;;;16.00;15.25;;;;;;;;5011309;28;11620;-81
2022/01/13 11:54:27;;;;;;;;;21.00;14.50;;;;;;;;5003778;28;11629;-78
2022/01/13 11:57:12;;;;;;;;;18.75;16.00;;;;;;;;5012529;28;11687;-75
2022/01/13 11:59:39;;;;;;;;;19.25;17.75;;;;;;;;5005657;28;11604;-76
2022/01/13 12:02:27;;;;;;;;;25.25;20.50;;;;;;;;5003138;28;11599;-75
2022/01/13 12:05:14;;;;;;;;;22.75;22.75;;;;;;;;5003897;28;11595;-79
2022/01/13 12:07:44;;;;;;;;;23.25;20.50;;;;;;;;5001361;28;12348;-79
2022/01/13 12:10:37;;;;;;;;;38.50;38.50;;;;;;;;5005735;28;11627;-77
2022/01/13 12:13:33;;;;;;;;;35.00;31.00;;;;;;;;5005397;28;11625;-78
2022/01/13 12:16:00;;;;;;;;;50.75;38.50;;;;;;;;5006064;28;11641;-81
2022/01/13 12:19:00;;;;;;;;;35.75;31.00;;;;;;;;5005517;28;11677;-81
2022/01/13 12:21:34;;;;;;;;;33.25;28.25;;;;;;;;5002673;28;12378;-80
2022/01/13 12:24:01;;;;;;;;;31.50;28.50;;;;;;;;5005679;28;11720;-80
2022/01/13 12:26:49;;;;;;;;;38.00;32.50;;;;;;;;5004903;28;11647;-77
2022/01/13 12:29:19;;;;;;;;;34.50;33.25;;;;;;;;5004901;28;11622;-78
2022/01/13 12:31:51;;;;;;;;;54.50;46.75;;;;;;;;5004338;28;11692;-77
2022/01/13 12:34:25;;;;;;;;;30.25;26.25;;;;;;;;5005053;28;12455;-77
2022/01/13 12:36:54;;;;;;;;;33.50;30.50;;;;;;;;5006257;28;11628;-78
2022/01/13 12:39:23;;;;;;;;;49.00;41.75;;;;;;;;5003458;28;11736;-76
2022/01/13 12:42:00;;;;;;;;;25.75;21.75;;;;;;;;5005835;28;11658;-77
2022/01/13 12:47:09;;;;;;;;;40.00;39.25;;;;;;;;4989253;28;11710;-78
2022/01/13 12:49:37;;;;;;;;;48.75;40.00;;;;;;;;5006298;28;11643;-76
2022/01/13 12:52:06;;;;;;;;;42.75;40.25;;;;;;;;5004147;28;11647;-78
2022/01/13 12:54:34;;;;;;;;;35.25;33.75;;;;;;;;5005711;28;11632;-76
2022/01/13 12:57:03;;;;;;;;;61.75;44.25;;;;;;;;5005129;28;11728;-75
2022/01/13 12:59:32;;;;;;;;;42.75;38.25;;;;;;;;4991786;28;11681;-77
2022/01/13 13:02:00;;;;;;;;;30.25;27.50;;;;;;;;5004990;28;11576;-76
2022/01/13 13:04:29;;;;;;;;;26.50;23.00;;;;;;;;5000607;28;11637;-81
2022/01/13 13:06:58;;;;;;;;;34.75;30.75;;;;;;;;5003633;28;11622;-81
2022/01/13 13:09:28;;;;;;;;;33.50;29.00;;;;;;;;5002523;28;11637;-75
2022/01/13 13:12:00;;;;;;;;;23.50;23.50;;;;;;;;5005590;28;11745;-75
2022/01/13 13:14:34;;;;;;;;;42.25;35.00;;;;;;;;4998582;28;11591;-78
2022/01/13 13:17:02;;;;;;;;;40.25;32.75;;;;;;;;5000516;28;11615;-74
2022/01/13 13:19:38;;;;;;;;;34.00;30.75;;;;;;;;5006069;28;11623;-76
2022/01/13 13:22:07;;;;;;;;;40.75;35.75;;;;;;;;5004488;28;11664;-76
2022/01/13 13:24:42;;;;;;;;;43.25;34.75;;;;;;;;5005444;28;11616;-76
2022/01/13 13:27:09;;;;;;;;;49.75;43.25;;;;;;;;5003865;28;11659;-76
2022/01/13 13:29:37;;;;;;;;;42.00;31.00;;;;;;;;5006062;28;11677;-79
2022/01/13 13:32:08;;;;;;;;;35.50;29.25;;;;;;;;5004147;28;11637;-79
2022/01/13 13:34:36;;;;;;;;;39.75;36.50;;;;;;;;5002981;28;11624;-80
2022/01/13 13:37:05;;;;;;;;;31.50;26.75;;;;;;;;5004981;28;12463;-77
2022/01/13 13:40:20;;;;;;;;;37.50;31.00;;;;;;;;5002261;28;11717;-80
2022/01/13 13:46:42;;;;;;;;;34.25;22.75;;;;;;;;4984163;28;12374;-79
2022/01/13 13:49:09;;;;;;;;;23.50;21.25;;;;;;;;5051611;28;11683;-78
2022/01/13 13:51:37;;;;;;;;;24.00;23.75;;;;;;;;5063013;28;11561;-79
2022/01/13 13:54:13;;;;;;;;;34.50;30.00;;;;;;;;5064693;28;11550;-77
2022/01/13 13:56:46;;;;;;;;;39.00;38.75;;;;;;;;5062998;28;11567;-79
2022/01/13 13:59:18;;;;;;;;;41.25;39.00;;;;;;;;5059118;28;11561;-79
2022/01/13 14:01:56;;;;;;;;;39.50;33.25;;;;;;;;5060953;28;11502;-80
2022/01/13 14:04:34;;;;;;;;;43.75;31.25;;;;;;;;5059734;28;11562;-79
2022/01/13 14:07:01;;;;;;;;;42.75;40.00;;;;;;;;5056970;28;11607;-78
2022/01/13 14:09:39;;;;;;;;;24.75;24.75;;;;;;;;5060119;28;11581;-78
2022/01/13 14:12:08;;;;;;;;;35.50;30.25;;;;;;;;5063634;28;11546;-79
2022/01/13 14:14:39;;;;;;;;;33.25;24.25;;;;;;;;5043542;28;12317;-79
2022/01/13 14:17:09;;;;;;;;;33.50;31.50;;;;;;;;5061915;28;11523;-78
2022/01/13 14:19:36;;;;;;;;;43.25;39.00;;;;;;;;5061687;28;11514;-78
2022/01/13 14:22:04;;;;;;;;;40.25;38.50;;;;;;;;5061842;28;11518;-80
2022/01/13 14:24:39;;;;;;;;;48.00;44.50;;;;;;;;5060508;28;11533;-77
2022/01/13 14:27:11;;;;;;;;;45.00;38.25;;;;;;;;5057860;28;11599;-79
2022/01/13 14:29:39;;;;;;;;;42.50;39.00;;;;;;;;5062292;28;11595;-79
2022/01/13 14:32:20;;;;;;;;;33.25;27.75;;;;;;;;5059105;28;11520;-78
2022/01/13 14:34:48;;;;;;;;;25.25;20.75;;;;;;;;5060826;28;12312;-79
2022/01/13 14:37:16;;;;;;;;;24.75;21.50;;;;;;;;5061893;28;11538;-79
2022/01/13 14:39:44;;;;;;;;;30.25;30.25;;;;;;;;5062417;28;12995;-76
2022/01/13 14:42:14;;;;;;;;;33.25;29.25;;;;;;;;5059038;28;11486;-79
2022/01/13 14:44:43;;;;;;;;;35.25;30.75;;;;;;;;5062735;28;11505;-77
2022/01/13 14:47:10;;;;;;;;;37.25;36.75;;;;;;;;5062884;28;11596;-76
2022/01/13 14:49:40;;;;;;;;;34.75;29.50;;;;;;;;5061393;28;11521;-81
2022/01/13 14:52:10;;;;;;;;;45.75;37.25;;;;;;;;5061980;28;11541;-75
2022/01/13 14:54:38;;;;;;;;;34.00;26.00;;;;;;;;5062344;28;11517;-77